sensor_id;sensor_type;location;lat;lon;timestamp;temperature;humidity
70246;SHT30;57637;49.272;8.590;2024-03-29T00:02:00;7.06;74.39
70246;SHT30;57637;49.272;8.590;2024-03-29T00:04:25;7.10;74.20
70246;SHT30;57637;49.272;8.590;2024-03-29T00:06:51;7.12;73.81
70246;SHT30;57637;49.272;8.590;2024-03-29T00:09:16;7.22;73.23
70246;SHT30;57637;49.272;8.590;2024-03-29T00:11:41;7.27;72.72
70246;SHT30;57637;49.272;8.590;2024-03-29T00:14:07;7.33;72.93
70246;SHT30;57637;49.272;8.590;2024-03-29T00:16:32;7.33;72.82
70246;SHT30;57637;49.272;8.590;2024-03-29T00:18:58;7.29;73.10
70246;SHT30;57637;49.272;8.590;2024-03-29T00:21:23;7.32;72.97
70246;SHT30;57637;49.272;8.590;2024-03-29T00:23:48;7.27;72.75
70246;SHT30;57637;49.272;8.590;2024-03-29T00:26:16;7.30;72.84
70246;SHT30;57637;49.272;8.590;2024-03-29T00:28:41;7.29;72.57
70246;SHT30;57637;49.272;8.590;2024-03-29T00:31:07;7.39;71.73
70246;SHT30;57637;49.272;8.590;2024-03-29T00:33:32;7.40;71.37
70246;SHT30;57637;49.272;8.590;2024-03-29T00:35:58;7.52;70.67
70246;SHT30;57637;49.272;8.590;2024-03-29T00:38:23;7.56;70.23
70246;SHT30;57637;49.272;8.590;2024-03-29T00:40:48;7.63;69.40
70246;SHT30;57637;49.272;8.590;2024-03-29T00:43:14;7.66;69.99
70246;SHT30;57637;49.272;8.590;2024-03-29T00:45:40;7.69;70.03
70246;SHT30;57637;49.272;8.590;2024-03-29T00:48:05;7.81;68.83
70246;SHT30;57637;49.272;8.590;2024-03-29T00:50:31;7.81;68.47
70246;SHT30;57637;49.272;8.590;2024-03-29T00:52:57;7.90;67.96
70246;SHT30;57637;49.272;8.590;2024-03-29T00:55:22;8.14;66.85
70246;SHT30;57637;49.272;8.590;2024-03-29T00:57:48;8.12;67.60
70246;SHT30;57637;49.272;8.590;2024-03-29T01:00:13;7.94;69.47
70246;SHT30;57637;49.272;8.590;2024-03-29T01:02:39;7.83;69.92
70246;SHT30;57637;49.272;8.590;2024-03-29T01:05:05;7.80;69.91
70246;SHT30;57637;49.272;8.590;2024-03-29T01:07:31;7.80;70.03
70246;SHT30;57637;49.272;8.590;2024-03-29T01:09:56;7.90;68.88
70246;SHT30;57637;49.272;8.590;2024-03-29T01:12:21;7.97;68.46
70246;SHT30;57637;49.272;8.590;2024-03-29T01:14:47;7.97;68.61
70246;SHT30;57637;49.272;8.590;2024-03-29T01:17:12;8.04;68.20
70246;SHT30;57637;49.272;8.590;2024-03-29T01:19:38;8.06;68.12
70246;SHT30;57637;49.272;8.590;2024-03-29T01:22:03;8.05;68.26
70246;SHT30;57637;49.272;8.590;2024-03-29T01:24:29;8.02;68.26
70246;SHT30;57637;49.272;8.590;2024-03-29T01:26:55;8.12;67.45
70246;SHT30;57637;49.272;8.590;2024-03-29T01:29:20;8.28;65.64
70246;SHT30;57637;49.272;8.590;2024-03-29T01:31:45;8.49;64.79
70246;SHT30;57637;49.272;8.590;2024-03-29T01:34:11;8.73;63.91
70246;SHT30;57637;49.272;8.590;2024-03-29T01:36:36;8.87;62.87
70246;SHT30;57637;49.272;8.590;2024-03-29T01:39:01;8.97;62.55
70246;SHT30;57637;49.272;8.590;2024-03-29T01:41:27;9.07;62.12
70246;SHT30;57637;49.272;8.590;2024-03-29T01:43:53;9.20;61.51
70246;SHT30;57637;49.272;8.590;2024-03-29T01:46:19;9.14;61.78
70246;SHT30;57637;49.272;8.590;2024-03-29T01:48:46;9.23;61.44
70246;SHT30;57637;49.272;8.590;2024-03-29T01:51:11;9.18;61.63
70246;SHT30;57637;49.272;8.590;2024-03-29T01:53:39;9.24;61.48
70246;SHT30;57637;49.272;8.590;2024-03-29T01:56:05;9.17;62.25
70246;SHT30;57637;49.272;8.590;2024-03-29T01:58:31;9.20;61.92
70246;SHT30;57637;49.272;8.590;2024-03-29T02:00:58;9.23;62.19
70246;SHT30;57637;49.272;8.590;2024-03-29T02:03:25;9.23;62.23
70246;SHT30;57637;49.272;8.590;2024-03-29T02:05:50;9.35;61.66
70246;SHT30;57637;49.272;8.590;2024-03-29T02:08:17;9.42;61.44
70246;SHT30;57637;49.272;8.590;2024-03-29T02:10:43;9.47;61.59
70246;SHT30;57637;49.272;8.590;2024-03-29T02:13:10;9.47;61.70
70246;SHT30;57637;49.272;8.590;2024-03-29T02:15:36;9.54;61.65
70246;SHT30;57637;49.272;8.590;2024-03-29T02:18:01;9.51;61.91
70246;SHT30;57637;49.272;8.590;2024-03-29T02:20:27;9.55;61.62
70246;SHT30;57637;49.272;8.590;2024-03-29T02:23:13;9.61;61.63
70246;SHT30;57637;49.272;8.590;2024-03-29T02:25:43;9.57;61.80
70246;SHT30;57637;49.272;8.590;2024-03-29T02:28:08;9.61;61.80
70246;SHT30;57637;49.272;8.590;2024-03-29T02:30:34;9.62;61.79
70246;SHT30;57637;49.272;8.590;2024-03-29T02:32:59;9.68;61.56
70246;SHT30;57637;49.272;8.590;2024-03-29T02:35:26;9.72;61.48
70246;SHT30;57637;49.272;8.590;2024-03-29T02:37:52;9.74;61.37
70246;SHT30;57637;49.272;8.590;2024-03-29T02:40:18;9.74;61.38
70246;SHT30;57637;49.272;8.590;2024-03-29T02:42:43;9.72;61.83
70246;SHT30;57637;49.272;8.590;2024-03-29T02:45:09;9.72;61.60
70246;SHT30;57637;49.272;8.590;2024-03-29T02:47:35;9.78;61.48
70246;SHT30;57637;49.272;8.590;2024-03-29T02:50:00;9.75;62.13
70246;SHT30;57637;49.272;8.590;2024-03-29T02:52:25;9.75;62.13
70246;SHT30;57637;49.272;8.590;2024-03-29T02:54:51;9.75;61.90
70246;SHT30;57637;49.272;8.590;2024-03-29T02:57:16;9.82;61.20
70246;SHT30;57637;49.272;8.590;2024-03-29T02:59:41;9.77;61.59
70246;SHT30;57637;49.272;8.590;2024-03-29T03:02:07;9.82;61.16
70246;SHT30;57637;49.272;8.590;2024-03-29T03:04:33;9.85;60.87
70246;SHT30;57637;49.272;8.590;2024-03-29T03:06:58;9.92;60.49
70246;SHT30;57637;49.272;8.590;2024-03-29T03:09:44;9.93;60.36
70246;SHT30;57637;49.272;8.590;2024-03-29T03:12:28;10.01;60.16
70246;SHT30;57637;49.272;8.590;2024-03-29T03:14:54;9.96;60.48
70246;SHT30;57637;49.272;8.590;2024-03-29T03:17:20;9.96;60.51
70246;SHT30;57637;49.272;8.590;2024-03-29T03:19:45;9.99;60.42
70246;SHT30;57637;49.272;8.590;2024-03-29T03:22:10;9.98;60.88
70246;SHT30;57637;49.272;8.590;2024-03-29T03:24:36;9.98;60.72
70246;SHT30;57637;49.272;8.590;2024-03-29T03:27:01;9.99;60.70
70246;SHT30;57637;49.272;8.590;2024-03-29T03:29:27;10.03;60.38
70246;SHT30;57637;49.272;8.590;2024-03-29T03:31:52;10.06;60.46
70246;SHT30;57637;49.272;8.590;2024-03-29T03:34:17;10.01;60.94
70246;SHT30;57637;49.272;8.590;2024-03-29T03:36:43;10.05;60.68
70246;SHT30;57637;49.272;8.590;2024-03-29T03:39:08;10.03;60.81
70246;SHT30;57637;49.272;8.590;2024-03-29T03:41:33;10.06;61.32
70246;SHT30;57637;49.272;8.590;2024-03-29T03:43:58;10.05;62.36
70246;SHT30;57637;49.272;8.590;2024-03-29T03:46:24;10.02;63.59
70246;SHT30;57637;49.272;8.590;2024-03-29T03:48:49;9.96;64.20
70246;SHT30;57637;49.272;8.590;2024-03-29T03:51:14;9.93;64.28
70246;SHT30;57637;49.272;8.590;2024-03-29T03:53:40;9.88;65.42
70246;SHT30;57637;49.272;8.590;2024-03-29T03:56:05;9.81;66.48
70246;SHT30;57637;49.272;8.590;2024-03-29T03:58:31;9.77;67.03
70246;SHT30;57637;49.272;8.590;2024-03-29T04:00:56;9.75;67.01
70246;SHT30;57637;49.272;8.590;2024-03-29T04:03:22;9.75;67.05
70246;SHT30;57637;49.272;8.590;2024-03-29T04:05:47;9.74;67.62
70246;SHT30;57637;49.272;8.590;2024-03-29T04:08:12;9.72;67.24
70246;SHT30;57637;49.272;8.590;2024-03-29T04:10:39;9.77;66.57
70246;SHT30;57637;49.272;8.590;2024-03-29T04:13:05;9.74;66.90
70246;SHT30;57637;49.272;8.590;2024-03-29T04:15:30;9.71;66.87
70246;SHT30;57637;49.272;8.590;2024-03-29T04:17:57;9.72;66.80
70246;SHT30;57637;49.272;8.590;2024-03-29T04:20:23;9.74;66.33
70246;SHT30;57637;49.272;8.590;2024-03-29T04:22:49;9.75;66.10
70246;SHT30;57637;49.272;8.590;2024-03-29T04:25:14;9.75;66.39
70246;SHT30;57637;49.272;8.590;2024-03-29T04:27:39;9.71;67.02
70246;SHT30;57637;49.272;8.590;2024-03-29T04:30:06;9.69;67.20
70246;SHT30;57637;49.272;8.590;2024-03-29T04:32:31;9.67;67.88
70246;SHT30;57637;49.272;8.590;2024-03-29T04:34:57;9.63;68.19
70246;SHT30;57637;49.272;8.590;2024-03-29T04:37:22;9.63;68.43
70246;SHT30;57637;49.272;8.590;2024-03-29T04:39:47;9.58;67.93
70246;SHT30;57637;49.272;8.590;2024-03-29T04:42:13;9.57;69.13
70246;SHT30;57637;49.272;8.590;2024-03-29T04:44:40;9.58;68.32
70246;SHT30;57637;49.272;8.590;2024-03-29T04:47:05;9.55;68.96
70246;SHT30;57637;49.272;8.590;2024-03-29T04:49:31;9.50;69.43
70246;SHT30;57637;49.272;8.590;2024-03-29T04:51:59;9.45;69.75
70246;SHT30;57637;49.272;8.590;2024-03-29T04:54:25;9.44;69.80
70246;SHT30;57637;49.272;8.590;2024-03-29T04:56:52;9.45;69.69
70246;SHT30;57637;49.272;8.590;2024-03-29T04:59:18;9.44;70.04
70246;SHT30;57637;49.272;8.590;2024-03-29T05:01:45;9.42;70.68
70246;SHT30;57637;49.272;8.590;2024-03-29T05:04:15;9.38;71.31
70246;SHT30;57637;49.272;8.590;2024-03-29T05:06:42;9.35;71.40
70246;SHT30;57637;49.272;8.590;2024-03-29T05:09:07;9.35;71.43
70246;SHT30;57637;49.272;8.590;2024-03-29T05:11:32;9.34;71.26
70246;SHT30;57637;49.272;8.590;2024-03-29T05:13:58;9.34;71.28
70246;SHT30;57637;49.272;8.590;2024-03-29T05:16:26;9.41;70.23
70246;SHT30;57637;49.272;8.590;2024-03-29T05:18:51;9.44;70.25
70246;SHT30;57637;49.272;8.590;2024-03-29T05:21:17;9.41;70.53
70246;SHT30;57637;49.272;8.590;2024-03-29T05:23:42;9.41;70.15
70246;SHT30;57637;49.272;8.590;2024-03-29T05:26:07;9.44;70.16
70246;SHT30;57637;49.272;8.590;2024-03-29T05:28:33;9.44;70.25
70246;SHT30;57637;49.272;8.590;2024-03-29T05:31:08;9.41;70.72
70246;SHT30;57637;49.272;8.590;2024-03-29T05:33:37;9.37;70.90
70246;SHT30;57637;49.272;8.590;2024-03-29T05:36:02;9.34;70.97
70246;SHT30;57637;49.272;8.590;2024-03-29T05:38:30;9.37;70.37
70246;SHT30;57637;49.272;8.590;2024-03-29T05:40:55;9.42;69.98
70246;SHT30;57637;49.272;8.590;2024-03-29T05:43:20;9.48;69.98
70246;SHT30;57637;49.272;8.590;2024-03-29T05:45:46;9.48;70.09
70246;SHT30;57637;49.272;8.590;2024-03-29T05:48:11;9.51;69.88
70246;SHT30;57637;49.272;8.590;2024-03-29T05:50:36;9.50;70.04
70246;SHT30;57637;49.272;8.590;2024-03-29T05:53:02;9.50;69.98
70246;SHT30;57637;49.272;8.590;2024-03-29T05:55:28;9.50;70.48
70246;SHT30;57637;49.272;8.590;2024-03-29T05:57:54;9.51;70.22
70246;SHT30;57637;49.272;8.590;2024-03-29T06:00:19;9.50;70.54
70246;SHT30;57637;49.272;8.590;2024-03-29T06:02:45;9.48;70.23
70246;SHT30;57637;49.272;8.590;2024-03-29T06:05:10;9.50;70.39
70246;SHT30;57637;49.272;8.590;2024-03-29T06:07:36;9.52;70.89
70246;SHT30;57637;49.272;8.590;2024-03-29T06:10:02;9.50;70.82
70246;SHT30;57637;49.272;8.590;2024-03-29T06:12:33;9.55;70.61
70246;SHT30;57637;49.272;8.590;2024-03-29T06:14:58;9.65;69.60
70246;SHT30;57637;49.272;8.590;2024-03-29T06:17:43;9.72;69.34
70246;SHT30;57637;49.272;8.590;2024-03-29T06:20:09;9.75;69.83
70246;SHT30;57637;49.272;8.590;2024-03-29T06:22:35;9.79;69.86
70246;SHT30;57637;49.272;8.590;2024-03-29T06:25:00;9.82;69.68
70246;SHT30;57637;49.272;8.590;2024-03-29T06:27:32;9.83;69.75
70246;SHT30;57637;49.272;8.590;2024-03-29T06:29:58;9.86;69.88
70246;SHT30;57637;49.272;8.590;2024-03-29T06:32:23;9.91;69.64
70246;SHT30;57637;49.272;8.590;2024-03-29T06:34:49;9.98;67.91
70246;SHT30;57637;49.272;8.590;2024-03-29T06:37:14;10.10;67.03
70246;SHT30;57637;49.272;8.590;2024-03-29T06:39:40;10.26;65.59
70246;SHT30;57637;49.272;8.590;2024-03-29T06:42:07;10.37;64.67
70246;SHT30;57637;49.272;8.590;2024-03-29T06:44:32;10.43;64.31
70246;SHT30;57637;49.272;8.590;2024-03-29T06:46:58;10.50;63.38
70246;SHT30;57637;49.272;8.590;2024-03-29T06:49:23;10.53;63.90
70246;SHT30;57637;49.272;8.590;2024-03-29T06:51:49;10.59;62.75
70246;SHT30;57637;49.272;8.590;2024-03-29T06:54:14;10.61;62.62
70246;SHT30;57637;49.272;8.590;2024-03-29T06:56:40;10.73;62.31
70246;SHT30;57637;49.272;8.590;2024-03-29T06:59:05;10.77;61.27
70246;SHT30;57637;49.272;8.590;2024-03-29T07:01:31;10.88;61.07
70246;SHT30;57637;49.272;8.590;2024-03-29T07:03:56;10.93;60.12
70246;SHT30;57637;49.272;8.590;2024-03-29T07:06:22;11.07;60.44
70246;SHT30;57637;49.272;8.590;2024-03-29T07:08:48;11.16;59.97
70246;SHT30;57637;49.272;8.590;2024-03-29T07:11:13;11.25;60.11
70246;SHT30;57637;49.272;8.590;2024-03-29T07:13:39;11.46;60.43
70246;SHT30;57637;49.272;8.590;2024-03-29T07:16:04;11.52;59.19
70246;SHT30;57637;49.272;8.590;2024-03-29T07:18:29;11.59;59.26
70246;SHT30;57637;49.272;8.590;2024-03-29T07:20:55;11.59;59.04
70246;SHT30;57637;49.272;8.590;2024-03-29T07:23:21;11.61;59.21
70246;SHT30;57637;49.272;8.590;2024-03-29T07:25:59;11.63;59.88
70246;SHT30;57637;49.272;8.590;2024-03-29T07:28:27;11.55;60.26
70246;SHT30;57637;49.272;8.590;2024-03-29T07:30:52;11.61;61.72
70246;SHT30;57637;49.272;8.590;2024-03-29T07:33:18;11.48;60.22
70246;SHT30;57637;49.272;8.590;2024-03-29T07:35:46;11.42;62.11
70246;SHT30;57637;49.272;8.590;2024-03-29T07:38:13;11.39;62.84
70246;SHT30;57637;49.272;8.590;2024-03-29T07:40:40;11.25;63.56
70246;SHT30;57637;49.272;8.590;2024-03-29T07:43:06;11.28;65.36
70246;SHT30;57637;49.272;8.590;2024-03-29T07:45:31;11.29;66.47
70246;SHT30;57637;49.272;8.590;2024-03-29T07:47:57;11.31;67.70
70246;SHT30;57637;49.272;8.590;2024-03-29T07:50:23;11.26;68.84
70246;SHT30;57637;49.272;8.590;2024-03-29T07:52:49;11.21;67.81
70246;SHT30;57637;49.272;8.590;2024-03-29T07:55:15;11.07;69.17
70246;SHT30;57637;49.272;8.590;2024-03-29T07:57:40;11.05;70.04
70246;SHT30;57637;49.272;8.590;2024-03-29T08:00:06;11.03;69.63
70246;SHT30;57637;49.272;8.590;2024-03-29T08:02:32;10.95;71.83
70246;SHT30;57637;49.272;8.590;2024-03-29T08:04:58;10.97;71.90
70246;SHT30;57637;49.272;8.590;2024-03-29T08:07:24;11.07;71.81
70246;SHT30;57637;49.272;8.590;2024-03-29T08:09:49;11.16;71.73
70246;SHT30;57637;49.272;8.590;2024-03-29T08:12:17;11.14;72.34
70246;SHT30;57637;49.272;8.590;2024-03-29T08:14:43;11.12;73.62
70246;SHT30;57637;49.272;8.590;2024-03-29T08:17:09;11.05;73.47
70246;SHT30;57637;49.272;8.590;2024-03-29T08:19:41;11.03;73.95
70246;SHT30;57637;49.272;8.590;2024-03-29T08:22:13;11.07;75.24
70246;SHT30;57637;49.272;8.590;2024-03-29T08:24:38;10.97;75.21
70246;SHT30;57637;49.272;8.590;2024-03-29T08:27:04;10.83;76.43
70246;SHT30;57637;49.272;8.590;2024-03-29T08:29:30;10.80;78.77
70246;SHT30;57637;49.272;8.590;2024-03-29T08:31:55;10.80;80.18
70246;SHT30;57637;49.272;8.590;2024-03-29T08:34:21;10.77;80.52
70246;SHT30;57637;49.272;8.590;2024-03-29T08:36:46;10.75;81.89
70246;SHT30;57637;49.272;8.590;2024-03-29T08:39:12;10.63;82.16
70246;SHT30;57637;49.272;8.590;2024-03-29T08:41:37;10.61;83.26
70246;SHT30;57637;49.272;8.590;2024-03-29T08:44:03;10.61;83.00
70246;SHT30;57637;49.272;8.590;2024-03-29T08:46:29;10.54;82.43
70246;SHT30;57637;49.272;8.590;2024-03-29T08:48:55;10.60;82.90
70246;SHT30;57637;49.272;8.590;2024-03-29T08:51:20;10.63;82.43
70246;SHT30;57637;49.272;8.590;2024-03-29T08:53:46;10.61;81.85
70246;SHT30;57637;49.272;8.590;2024-03-29T08:56:12;10.54;82.46
70246;SHT30;57637;49.272;8.590;2024-03-29T08:58:40;10.68;83.19
70246;SHT30;57637;49.272;8.590;2024-03-29T09:01:06;10.70;82.70
70246;SHT30;57637;49.272;8.590;2024-03-29T09:03:31;10.60;83.38
70246;SHT30;57637;49.272;8.590;2024-03-29T09:05:57;10.53;83.85
70246;SHT30;57637;49.272;8.590;2024-03-29T09:08:22;10.63;83.32
70246;SHT30;57637;49.272;8.590;2024-03-29T09:10:48;10.64;84.32
70246;SHT30;57637;49.272;8.590;2024-03-29T09:13:13;10.73;84.19
70246;SHT30;57637;49.272;8.590;2024-03-29T09:15:39;10.74;84.51
70246;SHT30;57637;49.272;8.590;2024-03-29T09:18:04;10.80;84.39
70246;SHT30;57637;49.272;8.590;2024-03-29T09:20:42;10.88;85.13
70246;SHT30;57637;49.272;8.590;2024-03-29T09:23:10;11.18;84.21
70246;SHT30;57637;49.272;8.590;2024-03-29T09:25:39;11.38;83.44
70246;SHT30;57637;49.272;8.590;2024-03-29T09:28:05;11.69;82.01
70246;SHT30;57637;49.272;8.590;2024-03-29T09:30:30;11.72;82.44
70246;SHT30;57637;49.272;8.590;2024-03-29T09:32:56;11.72;82.20
70246;SHT30;57637;49.272;8.590;2024-03-29T09:35:21;11.89;81.01
70246;SHT30;57637;49.272;8.590;2024-03-29T09:37:46;11.82;80.57
70246;SHT30;57637;49.272;8.590;2024-03-29T09:40:12;11.82;81.44
70246;SHT30;57637;49.272;8.590;2024-03-29T09:42:38;11.86;80.94
70246;SHT30;57637;49.272;8.590;2024-03-29T09:45:04;11.93;80.58
70246;SHT30;57637;49.272;8.590;2024-03-29T09:47:31;11.94;81.38
70246;SHT30;57637;49.272;8.590;2024-03-29T09:49:59;12.00;80.66
70246;SHT30;57637;49.272;8.590;2024-03-29T09:52:28;12.27;82.48
70246;SHT30;57637;49.272;8.590;2024-03-29T09:54:54;12.51;80.70
70246;SHT30;57637;49.272;8.590;2024-03-29T09:57:21;12.24;79.93
70246;SHT30;57637;49.272;8.590;2024-03-29T09:59:49;11.99;81.73
70246;SHT30;57637;49.272;8.590;2024-03-29T10:02:15;12.27;80.81
70246;SHT30;57637;49.272;8.590;2024-03-29T10:04:47;12.31;81.88
70246;SHT30;57637;49.272;8.590;2024-03-29T10:07:15;12.33;82.44
70246;SHT30;57637;49.272;8.590;2024-03-29T10:09:42;12.92;81.08
70246;SHT30;57637;49.272;8.590;2024-03-29T10:12:09;12.88;81.10
70246;SHT30;57637;49.272;8.590;2024-03-29T10:14:44;12.61;82.14
70246;SHT30;57637;49.272;8.590;2024-03-29T10:17:14;12.88;82.27
70246;SHT30;57637;49.272;8.590;2024-03-29T10:19:42;13.08;81.54
70246;SHT30;57637;49.272;8.590;2024-03-29T10:22:07;13.39;80.87
70246;SHT30;57637;49.272;8.590;2024-03-29T10:24:33;13.44;81.48
70246;SHT30;57637;49.272;8.590;2024-03-29T10:26:59;13.69;81.66
70246;SHT30;57637;49.272;8.590;2024-03-29T10:29:28;13.64;81.17
70246;SHT30;57637;49.272;8.590;2024-03-29T10:31:55;13.59;81.13
70246;SHT30;57637;49.272;8.590;2024-03-29T10:34:21;13.01;82.93
70246;SHT30;57637;49.272;8.590;2024-03-29T10:36:46;13.42;81.38
70246;SHT30;57637;49.272;8.590;2024-03-29T10:39:12;13.38;82.36
70246;SHT30;57637;49.272;8.590;2024-03-29T10:41:41;13.19;81.98
70246;SHT30;57637;49.272;8.590;2024-03-29T10:44:08;13.42;83.25
70246;SHT30;57637;49.272;8.590;2024-03-29T10:46:37;13.57;83.00
70246;SHT30;57637;49.272;8.590;2024-03-29T10:49:06;13.50;82.68
70246;SHT30;57637;49.272;8.590;2024-03-29T10:51:40;13.23;82.58
70246;SHT30;57637;49.272;8.590;2024-03-29T10:54:09;12.85;83.95
70246;SHT30;57637;49.272;8.590;2024-03-29T10:56:36;12.95;84.93
70246;SHT30;57637;49.272;8.590;2024-03-29T10:59:21;12.91;85.31
70246;SHT30;57637;49.272;8.590;2024-03-29T11:01:59;12.89;85.51
70246;SHT30;57637;49.272;8.590;2024-03-29T11:04:29;12.77;85.70
70246;SHT30;57637;49.272;8.590;2024-03-29T11:06:59;12.72;86.09
70246;SHT30;57637;49.272;8.590;2024-03-29T11:09:31;12.57;87.04
70246;SHT30;57637;49.272;8.590;2024-03-29T11:11:58;12.91;87.23
70246;SHT30;57637;49.272;8.590;2024-03-29T11:14:29;13.06;86.78
70246;SHT30;57637;49.272;8.590;2024-03-29T11:17:05;12.96;87.45
70246;SHT30;57637;49.272;8.590;2024-03-29T11:19:32;13.06;86.20
70246;SHT30;57637;49.272;8.590;2024-03-29T11:21:57;12.98;86.68
70246;SHT30;57637;49.272;8.590;2024-03-29T11:24:23;13.24;86.51
70246;SHT30;57637;49.272;8.590;2024-03-29T11:26:52;13.18;87.04
70246;SHT30;57637;49.272;8.590;2024-03-29T11:29:22;13.15;87.60
70246;SHT30;57637;49.272;8.590;2024-03-29T11:31:58;12.92;87.70
70246;SHT30;57637;49.272;8.590;2024-03-29T11:34:24;13.13;87.50
70246;SHT30;57637;49.272;8.590;2024-03-29T11:36:49;13.69;86.61
70246;SHT30;57637;49.272;8.590;2024-03-29T11:39:21;14.04;84.20
70246;SHT30;57637;49.272;8.590;2024-03-29T11:41:47;14.35;83.14
70246;SHT30;57637;49.272;8.590;2024-03-29T11:44:14;14.75;82.74
70246;SHT30;57637;49.272;8.590;2024-03-29T11:46:39;14.73;82.36
70246;SHT30;57637;49.272;8.590;2024-03-29T11:49:05;14.69;82.28
70246;SHT30;57637;49.272;8.590;2024-03-29T11:51:31;14.31;82.92
70246;SHT30;57637;49.272;8.590;2024-03-29T11:53:56;13.78;84.90
70246;SHT30;57637;49.272;8.590;2024-03-29T11:56:22;13.84;84.98
70246;SHT30;57637;49.272;8.590;2024-03-29T11:58:48;13.97;85.20
70246;SHT30;57637;49.272;8.590;2024-03-29T12:01:14;13.91;84.76
70246;SHT30;57637;49.272;8.590;2024-03-29T12:03:40;13.80;85.35
70246;SHT30;57637;49.272;8.590;2024-03-29T12:06:07;13.81;85.24
70246;SHT30;57637;49.272;8.590;2024-03-29T12:08:34;13.75;85.75
70246;SHT30;57637;49.272;8.590;2024-03-29T12:11:02;13.93;85.48
70246;SHT30;57637;49.272;8.590;2024-03-29T12:13:28;13.80;85.40
70246;SHT30;57637;49.272;8.590;2024-03-29T12:15:54;13.80;85.50
70246;SHT30;57637;49.272;8.590;2024-03-29T12:18:20;13.62;85.83
70246;SHT30;57637;49.272;8.590;2024-03-29T12:20:47;13.42;86.84
70246;SHT30;57637;49.272;8.590;2024-03-29T12:23:20;13.30;87.21
70246;SHT30;57637;49.272;8.590;2024-03-29T12:25:46;13.15;87.45
70246;SHT30;57637;49.272;8.590;2024-03-29T12:28:13;13.16;88.04
70246;SHT30;57637;49.272;8.590;2024-03-29T12:30:40;13.16;88.03
70246;SHT30;57637;49.272;8.590;2024-03-29T12:33:11;12.88;88.53
70246;SHT30;57637;49.272;8.590;2024-03-29T12:35:44;12.89;88.79
70246;SHT30;57637;49.272;8.590;2024-03-29T12:38:11;12.96;88.57
70246;SHT30;57637;49.272;8.590;2024-03-29T12:40:41;12.87;88.36
70246;SHT30;57637;49.272;8.590;2024-03-29T12:43:08;12.85;88.40
70246;SHT30;57637;49.272;8.590;2024-03-29T12:45:35;12.87;88.78
70246;SHT30;57637;49.272;8.590;2024-03-29T12:48:03;12.98;88.67
70246;SHT30;57637;49.272;8.590;2024-03-29T12:50:45;12.74;88.89
70246;SHT30;57637;49.272;8.590;2024-03-29T12:53:12;12.51;89.22
70246;SHT30;57637;49.272;8.590;2024-03-29T12:55:39;12.45;89.65
70246;SHT30;57637;49.272;8.590;2024-03-29T12:58:07;12.55;89.68
70246;SHT30;57637;49.272;8.590;2024-03-29T13:00:35;12.45;89.74
70246;SHT30;57637;49.272;8.590;2024-03-29T13:03:01;12.40;89.67
70246;SHT30;57637;49.272;8.590;2024-03-29T13:05:26;12.54;89.93
70246;SHT30;57637;49.272;8.590;2024-03-29T13:07:54;12.33;89.82
70246;SHT30;57637;49.272;8.590;2024-03-29T13:10:20;12.61;89.64
70246;SHT30;57637;49.272;8.590;2024-03-29T13:12:46;12.92;88.99
70246;SHT30;57637;49.272;8.590;2024-03-29T13:17:40;12.48;89.23
70246;SHT30;57637;49.272;8.590;2024-03-29T13:20:05;12.42;89.98
70246;SHT30;57637;49.272;8.590;2024-03-29T13:22:33;12.31;90.38
70246;SHT30;57637;49.272;8.590;2024-03-29T13:24:58;12.34;90.62
70246;SHT30;57637;49.272;8.590;2024-03-29T13:27:23;12.36;90.79
70246;SHT30;57637;49.272;8.590;2024-03-29T13:29:49;12.17;90.30
70246;SHT30;57637;49.272;8.590;2024-03-29T13:32:14;12.03;90.99
70246;SHT30;57637;49.272;8.590;2024-03-29T13:34:40;12.07;91.46
70246;SHT30;57637;49.272;8.590;2024-03-29T13:37:05;12.12;91.47
70246;SHT30;57637;49.272;8.590;2024-03-29T13:39:31;11.99;91.78
70246;SHT30;57637;49.272;8.590;2024-03-29T13:41:56;12.00;91.87
70246;SHT30;57637;49.272;8.590;2024-03-29T13:44:22;11.89;91.90
70246;SHT30;57637;49.272;8.590;2024-03-29T13:46:47;11.83;92.32
70246;SHT30;57637;49.272;8.590;2024-03-29T13:49:12;11.90;92.59
70246;SHT30;57637;49.272;8.590;2024-03-29T13:51:38;11.90;92.40
70246;SHT30;57637;49.272;8.590;2024-03-29T13:54:04;11.90;92.86
70246;SHT30;57637;49.272;8.590;2024-03-29T13:56:30;12.17;92.87
70246;SHT30;57637;49.272;8.590;2024-03-29T13:58:55;12.07;92.91
70246;SHT30;57637;49.272;8.590;2024-03-29T14:01:21;12.38;92.82
70246;SHT30;57637;49.272;8.590;2024-03-29T14:03:46;12.78;92.77
70246;SHT30;57637;49.272;8.590;2024-03-29T14:06:21;12.72;91.80
70246;SHT30;57637;49.272;8.590;2024-03-29T14:09:00;12.95;91.45
70246;SHT30;57637;49.272;8.590;2024-03-29T14:11:27;12.78;91.34
70246;SHT30;57637;49.272;8.590;2024-03-29T14:13:54;12.78;91.82
70246;SHT30;57637;49.272;8.590;2024-03-29T14:16:22;12.77;91.77
70246;SHT30;57637;49.272;8.590;2024-03-29T14:18:54;12.75;91.91
70246;SHT30;57637;49.272;8.590;2024-03-29T14:22:17;12.72;92.67
70246;SHT30;57637;49.272;8.590;2024-03-29T14:24:45;12.78;92.14
70246;SHT30;57637;49.272;8.590;2024-03-29T14:27:10;12.92;92.31
70246;SHT30;57637;49.272;8.590;2024-03-29T14:29:56;12.69;92.45
70246;SHT30;57637;49.272;8.590;2024-03-29T14:32:37;12.80;92.41
70246;SHT30;57637;49.272;8.590;2024-03-29T14:35:03;12.93;92.31
70246;SHT30;57637;49.272;8.590;2024-03-29T14:37:48;12.91;91.82
70246;SHT30;57637;49.272;8.590;2024-03-29T14:41:10;12.68;91.86
70246;SHT30;57637;49.272;8.590;2024-03-29T14:43:37;12.78;91.89
70246;SHT30;57637;49.272;8.590;2024-03-29T14:46:03;12.85;91.44
70246;SHT30;57637;49.272;8.590;2024-03-29T14:48:29;12.80;91.20
70246;SHT30;57637;49.272;8.590;2024-03-29T14:50:54;12.84;91.54
70246;SHT30;57637;49.272;8.590;2024-03-29T14:53:39;12.88;91.94
70246;SHT30;57637;49.272;8.590;2024-03-29T14:56:14;12.80;92.17
70246;SHT30;57637;49.272;8.590;2024-03-29T14:58:40;12.93;91.86
70246;SHT30;57637;49.272;8.590;2024-03-29T15:01:06;12.80;91.84
70246;SHT30;57637;49.272;8.590;2024-03-29T15:03:31;12.81;92.12
70246;SHT30;57637;49.272;8.590;2024-03-29T15:05:56;12.89;92.02
70246;SHT30;57637;49.272;8.590;2024-03-29T15:08:22;13.05;91.72
70246;SHT30;57637;49.272;8.590;2024-03-29T15:10:55;12.99;91.62
70246;SHT30;57637;49.272;8.590;2024-03-29T15:13:22;13.11;91.46
70246;SHT30;57637;49.272;8.590;2024-03-29T15:15:57;13.13;91.69
70246;SHT30;57637;49.272;8.590;2024-03-29T15:18:23;13.06;91.84
70246;SHT30;57637;49.272;8.590;2024-03-29T15:21:01;13.03;91.69
70246;SHT30;57637;49.272;8.590;2024-03-29T15:23:29;13.26;91.97
70246;SHT30;57637;49.272;8.590;2024-03-29T15:25:55;13.30;91.48
70246;SHT30;57637;49.272;8.590;2024-03-29T15:28:23;13.29;90.72
70246;SHT30;57637;49.272;8.590;2024-03-29T15:31:09;13.32;91.06
70246;SHT30;57637;49.272;8.590;2024-03-29T15:33:42;13.30;91.00
70246;SHT30;57637;49.272;8.590;2024-03-29T15:36:08;13.29;90.71
70246;SHT30;57637;49.272;8.590;2024-03-29T15:38:34;13.26;90.80
70246;SHT30;57637;49.272;8.590;2024-03-29T15:41:00;13.16;90.76